Time;durP1;ratioP1;P1;durP2;ratioP2;P2;SDS_P1;SDS_P2;PMS_P1;PMS_P2;Temp;Humidity;BMP_temperature;BMP_pressure;BME280_temperature;BME280_humidity;BME280_pressure;Samples;Min_cycle;Max_cycle;Signal;HPM_P1;HPM_P2
2023/07/28 00:01:58;;;;;;;2.58;1.40;;;;;;;;;;6302306;22;20007;-65
2023/07/28 00:04:24;;;;;;;3.83;2.05;;;;;;;;;;6301575;22;20438;-65
2023/07/28 00:06:51;;;;;;;4.10;1.80;;;;;;;;;;6302528;22;20796;-65
2023/07/28 00:09:17;;;;;;;2.95;1.95;;;;;;;;;;6302567;22;20002;-67
2023/07/28 00:11:42;;;;;;;6.45;2.50;;;;;;;;;;6302637;22;20098;-65
2023/07/28 00:14:08;;;;;;;6.88;2.22;;;;;;;;;;6301405;22;20002;-66
2023/07/28 00:16:34;;;;;;;4.80;1.95;;;;;;;;;;6301303;22;20019;-66
2023/07/28 00:19:00;;;;;;;3.00;1.70;;;;;;;;;;6301887;22;20461;-65
2023/07/28 00:21:27;;;;;;;3.75;1.80;;;;;;;;;;6302479;22;20441;-66
2023/07/28 00:23:52;;;;;;;6.07;2.10;;;;;;;;;;6302360;22;20038;-66
2023/07/28 00:26:18;;;;;;;3.97;1.67;;;;;;;;;;6302607;22;20011;-66
2023/07/28 00:28:44;;;;;;;3.78;1.98;;;;;;;;;;6302970;22;19999;-66
2023/07/28 00:31:10;;;;;;;4.75;2.08;;;;;;;;;;6275570;22;20613;-67
2023/07/28 00:33:37;;;;;;;3.05;1.95;;;;;;;;;;6302029;22;20454;-65
2023/07/28 00:36:04;;;;;;;5.45;2.20;;;;;;;;;;6302750;22;20480;-65
2023/07/28 00:38:31;;;;;;;2.60;1.90;;;;;;;;;;6250192;22;20007;-66
2023/07/28 00:40:58;;;;;;;3.78;2.13;;;;;;;;;;6301237;22;20013;-66
2023/07/28 00:43:24;;;;;;;3.53;1.92;;;;;;;;;;6302185;22;20013;-65
2023/07/28 00:45:51;;;;;;;2.70;1.58;;;;;;;;;;6302650;22;20007;-66
2023/07/28 00:48:18;;;;;;;4.90;1.83;;;;;;;;;;6302599;22;19999;-66
2023/07/28 00:50:48;;;;;;;4.78;1.80;;;;;;;;;;6302578;22;20090;-66
2023/07/28 00:53:15;;;;;;;4.63;1.50;;;;;;;;;;6302242;22;20015;-66
2023/07/28 00:55:42;;;;;;;4.95;2.10;;;;;;;;;;6275591;22;20010;-66
2023/07/28 00:58:10;;;;;;;3.83;1.80;;;;;;;;;;6304843;22;20011;-66
2023/07/28 01:00:36;;;;;;;2.35;1.60;;;;;;;;;;6304297;22;20006;-66
2023/07/28 01:03:03;;;;;;;4.78;2.10;;;;;;;;;;6304116;22;20023;-66
2023/07/28 01:05:50;;;;;;;4.65;1.90;;;;;;;;;;6304687;22;20060;-65
2023/07/28 01:08:18;;;;;;;5.53;2.00;;;;;;;;;;6292062;22;20023;-66
2023/07/28 01:10:44;;;;;;;3.13;1.80;;;;;;;;;;6245987;22;20011;-65
2023/07/28 01:13:10;;;;;;;2.85;1.90;;;;;;;;;;6263437;22;20031;-65
2023/07/28 01:15:36;;;;;;;3.58;1.90;;;;;;;;;;6215406;23;20004;-66
2023/07/28 01:18:02;;;;;;;5.18;2.08;;;;;;;;;;6240941;23;20027;-66
2023/07/28 01:20:31;;;;;;;3.60;2.08;;;;;;;;;;6242566;23;20000;-65
2023/07/28 01:23:22;;;;;;;4.10;2.40;;;;;;;;;;6241812;23;20426;-65
2023/07/28 01:26:02;;;;;;;2.85;2.00;;;;;;;;;;6242184;23;20012;-65
2023/07/28 01:28:29;;;;;;;10.02;2.38;;;;;;;;;;6240871;23;20062;-66
2023/07/28 01:30:54;;;;;;;4.57;2.10;;;;;;;;;;6241491;22;20031;-64
2023/07/28 01:33:21;;;;;;;8.85;2.10;;;;;;;;;;6212977;23;20012;-66
2023/07/28 01:35:46;;;;;;;7.70;2.70;;;;;;;;;;6243242;23;20004;-66
2023/07/28 01:38:13;;;;;;;7.40;2.38;;;;;;;;;;6241407;23;20023;-66
2023/07/28 01:40:39;;;;;;;4.75;2.53;;;;;;;;;;6215939;23;20008;-65
2023/07/28 01:43:05;;;;;;;4.53;2.40;;;;;;;;;;6215342;23;20026;-65
2023/07/28 01:45:30;;;;;;;4.82;2.45;;;;;;;;;;6217603;23;20071;-65
2023/07/28 01:47:56;;;;;;;5.50;2.50;;;;;;;;;;6243346;23;20031;-66
2023/07/28 01:50:22;;;;;;;6.07;2.95;;;;;;;;;;6216091;23;20008;-65
2023/07/28 01:52:48;;;;;;;4.75;2.88;;;;;;;;;;6240885;23;20016;-65
2023/07/28 01:55:13;;;;;;;11.73;2.90;;;;;;;;;;6215771;23;20066;-65
2023/07/28 01:57:40;;;;;;;9.32;3.00;;;;;;;;;;6215808;23;20016;-66
2023/07/28 02:00:06;;;;;;;11.32;2.50;;;;;;;;;;6242782;23;20035;-65
2023/07/28 02:02:41;;;;;;;5.38;2.70;;;;;;;;;;6242377;23;20090;-65
2023/07/28 02:05:07;;;;;;;12.00;3.70;;;;;;;;;;6242370;23;20435;-66
2023/07/28 02:07:33;;;;;;;9.18;2.40;;;;;;;;;;6242012;23;20046;-64
2023/07/28 02:09:58;;;;;;;6.15;2.70;;;;;;;;;;6241017;23;20091;-66
2023/07/28 02:12:24;;;;;;;7.88;2.38;;;;;;;;;;6242627;23;20008;-66
2023/07/28 02:14:51;;;;;;;7.47;2.67;;;;;;;;;;6240614;23;20082;-66
2023/07/28 02:17:16;;;;;;;3.22;1.98;;;;;;;;;;6215697;23;20008;-66
2023/07/28 02:19:43;;;;;;;6.53;2.38;;;;;;;;;;6215754;23;20031;-66
2023/07/28 02:22:08;;;;;;;4.18;2.10;;;;;;;;;;6242525;23;19996;-66
2023/07/28 02:24:34;;;;;;;3.92;2.03;;;;;;;;;;6215485;23;20099;-66
2023/07/28 02:27:00;;;;;;;5.05;2.25;;;;;;;;;;6242664;23;20004;-66
2023/07/28 02:29:26;;;;;;;4.95;2.08;;;;;;;;;;6241913;23;20350;-66
2023/07/28 02:31:51;;;;;;;4.95;2.40;;;;;;;;;;6242266;23;20014;-65
2023/07/28 02:34:17;;;;;;;6.95;2.40;;;;;;;;;;6240314;23;20342;-65
2023/07/28 02:36:43;;;;;;;7.03;2.88;;;;;;;;;;6242060;23;20008;-66
2023/07/28 02:39:08;;;;;;;10.27;2.75;;;;;;;;;;6242219;23;20379;-65
2023/07/28 02:41:34;;;;;;;7.30;2.33;;;;;;;;;;6215027;23;20008;-66
2023/07/28 02:44:00;;;;;;;8.27;2.08;;;;;;;;;;6241679;23;20011;-66
2023/07/28 02:46:25;;;;;;;5.82;2.50;;;;;;;;;;6242243;23;20011;-65
2023/07/28 02:48:51;;;;;;;4.93;1.90;;;;;;;;;;6242335;23;20008;-67
2023/07/28 02:51:17;;;;;;;5.07;2.13;;;;;;;;;;6189605;23;20318;-66
2023/07/28 02:53:43;;;;;;;9.23;2.17;;;;;;;;;;6239803;23;20280;-66
2023/07/28 02:56:09;;;;;;;7.82;2.13;;;;;;;;;;6214893;23;20326;-66
2023/07/28 02:58:35;;;;;;;6.85;1.92;;;;;;;;;;6240141;23;20096;-66
2023/07/28 03:01:01;;;;;;;3.40;2.05;;;;;;;;;;6214812;23;20058;-66
2023/07/28 03:03:34;;;;;;;6.80;2.10;;;;;;;;;;6214730;23;20100;-66
2023/07/28 03:06:00;;;;;;;3.72;1.92;;;;;;;;;;6189734;23;20020;-65
2023/07/28 03:08:26;;;;;;;5.22;2.05;;;;;;;;;;6214606;23;20029;-65
2023/07/28 03:10:58;;;;;;;4.83;2.30;;;;;;;;;;6214527;23;20020;-65
2023/07/28 03:13:24;;;;;;;3.45;2.05;;;;;;;;;;6237721;23;20654;-66
2023/07/28 03:15:50;;;;;;;6.05;1.92;;;;;;;;;;6242132;23;20016;-66
2023/07/28 03:18:20;;;;;;;3.13;1.90;;;;;;;;;;6214484;23;20094;-67
2023/07/28 03:20:47;;;;;;;4.95;2.35;;;;;;;;;;6239860;23;20046;-67
2023/07/28 03:23:12;;;;;;;7.15;2.60;;;;;;;;;;6213988;23;20034;-66
2023/07/28 03:25:38;;;;;;;4.25;2.13;;;;;;;;;;6240988;23;20016;-66
2023/07/28 03:28:04;;;;;;;4.25;2.20;;;;;;;;;;6241778;23;20254;-65
2023/07/28 03:30:30;;;;;;;4.57;2.08;;;;;;;;;;6214395;23;20074;-68
2023/07/28 03:32:55;;;;;;;3.92;1.90;;;;;;;;;;6241425;23;20007;-66
2023/07/28 03:35:21;;;;;;;3.35;1.98;;;;;;;;;;6245787;22;20166;-66
2023/07/28 03:37:56;;;;;;;5.13;2.17;;;;;;;;;;6244436;22;20007;-67
2023/07/28 03:40:22;;;;;;;6.55;2.03;;;;;;;;;;6271745;22;20772;-67
2023/07/28 03:42:52;;;;;;;5.18;2.17;;;;;;;;;;6245529;22;20010;-66
2023/07/28 03:45:17;;;;;;;5.43;2.00;;;;;;;;;;6273459;22;20015;-66
2023/07/28 03:47:43;;;;;;;5.47;2.65;;;;;;;;;;6247546;22;20028;-68
2023/07/28 03:50:09;;;;;;;8.60;2.53;;;;;;;;;;6273246;22;20011;-66
2023/07/28 03:52:35;;;;;;;6.13;2.00;;;;;;;;;;6247851;22;20011;-67
2023/07/28 03:55:01;;;;;;;5.45;1.90;;;;;;;;;;6273248;22;20435;-66
2023/07/28 03:57:27;;;;;;;6.57;2.33;;;;;;;;;;6275189;22;20000;-66
2023/07/28 03:59:52;;;;;;;6.72;2.63;;;;;;;;;;6272112;22;20118;-66
2023/07/28 04:02:18;;;;;;;8.00;2.42;;;;;;;;;;6247272;22;20033;-67
2023/07/28 04:04:44;;;;;;;8.05;2.65;;;;;;;;;;6274995;22;20049;-66
2023/07/28 04:07:09;;;;;;;11.25;2.38;;;;;;;;;;6274908;22;20031;-65
2023/07/28 04:09:35;;;;;;;13.05;2.63;;;;;;;;;;6247174;22;20453;-66
2023/07/28 04:12:01;;;;;;;6.22;2.28;;;;;;;;;;6274408;22;20079;-66
2023/07/28 04:14:27;;;;;;;7.15;2.20;;;;;;;;;;6274212;22;20007;-66
2023/07/28 04:16:52;;;;;;;7.55;1.92;;;;;;;;;;6274112;22;20078;-67
2023/07/28 04:19:18;;;;;;;4.43;2.00;;;;;;;;;;6247891;22;20042;-66
2023/07/28 04:21:43;;;;;;;13.43;2.30;;;;;;;;;;6274631;22;19995;-66
2023/07/28 04:24:10;;;;;;;10.60;2.45;;;;;;;;;;6272756;22;20061;-67
2023/07/28 04:26:42;;;;;;;8.30;2.65;;;;;;;;;;6247455;22;20006;-66
2023/07/28 04:29:08;;;;;;;6.85;2.40;;;;;;;;;;6271950;22;20018;-67
2023/07/28 04:31:34;;;;;;;6.28;2.55;;;;;;;;;;6248267;22;20346;-66
2023/07/28 04:34:04;;;;;;;6.75;2.00;;;;;;;;;;6274842;22;20090;-66
2023/07/28 04:36:59;;;;;;;9.73;2.53;;;;;;;;;;6255757;22;20043;-66
2023/07/28 04:39:33;;;;;;;9.18;3.10;;;;;;;;;;6225401;22;20341;-64
2023/07/28 04:41:59;;;;;;;8.18;2.65;;;;;;;;;;6249188;22;20070;-66
2023/07/28 04:44:25;;;;;;;5.65;2.70;;;;;;;;;;6274457;22;20004;-65
2023/07/28 04:46:56;;;;;;;6.68;2.55;;;;;;;;;;6248411;22;20015;-66
2023/07/28 04:49:22;;;;;;;17.90;2.92;;;;;;;;;;6274366;22;20015;-66
2023/07/28 04:52:14;;;;;;;9.63;2.78;;;;;;;;;;6262708;22;20012;-66
2023/07/28 04:55:11;;;;;;;7.03;2.50;;;;;;;;;;6240856;22;20017;-66
2023/07/28 04:57:38;;;;;;;11.80;2.40;;;;;;;;;;6274356;22;20030;-67
2023/07/28 05:00:05;;;;;;;6.72;2.20;;;;;;;;;;6223229;22;20084;-67
2023/07/28 05:02:30;;;;;;;9.40;2.80;;;;;;;;;;6223042;22;20018;-67
2023/07/28 05:04:56;;;;;;;6.47;2.20;;;;;;;;;;6248668;22;20078;-67
2023/07/28 05:07:22;;;;;;;13.15;2.70;;;;;;;;;;6274369;22;20019;-66
2023/07/28 05:09:48;;;;;;;14.05;3.80;;;;;;;;;;6274143;22;20327;-66
2023/07/28 05:12:13;;;;;;;8.65;2.70;;;;;;;;;;6248850;22;20015;-66
2023/07/28 05:14:45;;;;;;;8.43;2.80;;;;;;;;;;6247159;22;20016;-66
2023/07/28 05:17:14;;;;;;;14.73;3.10;;;;;;;;;;6247757;22;20617;-65
2023/07/28 05:20:11;;;;;;;10.40;2.80;;;;;;;;;;6256991;22;20004;-66
2023/07/28 05:22:45;;;;;;;13.10;2.78;;;;;;;;;;6272456;22;20016;-66
2023/07/28 05:25:11;;;;;;;14.93;3.25;;;;;;;;;;6272822;22;20016;-65
2023/07/28 05:27:40;;;;;;;14.65;2.67;;;;;;;;;;6248075;22;20094;-66
2023/07/28 05:30:07;;;;;;;11.95;3.17;;;;;;;;;;6273219;22;20016;-65
2023/07/28 05:32:33;;;;;;;12.82;2.80;;;;;;;;;;6275156;22;20004;-65
2023/07/28 05:35:20;;;;;;;7.63;2.90;;;;;;;;;;6274030;22;20094;-64
2023/07/28 05:37:46;;;;;;;17.90;2.63;;;;;;;;;;6247262;22;20022;-65
2023/07/28 05:40:13;;;;;;;9.00;2.65;;;;;;;;;;6247946;22;20008;-67
2023/07/28 05:42:38;;;;;;;12.77;2.72;;;;;;;;;;6274550;22;20012;-66
2023/07/28 05:45:05;;;;;;;12.25;3.15;;;;;;;;;;6247324;22;20074;-66
2023/07/28 05:47:31;;;;;;;17.38;3.13;;;;;;;;;;6223161;22;20449;-65
2023/07/28 05:49:57;;;;;;;15.88;3.35;;;;;;;;;;6247853;22;20008;-66
2023/07/28 05:52:23;;;;;;;9.50;2.58;;;;;;;;;;6247138;22;20016;-66
2023/07/28 05:54:48;;;;;;;20.75;3.95;;;;;;;;;;6247431;22;20102;-68
2023/07/28 05:57:14;;;;;;;10.20;3.22;;;;;;;;;;6272239;22;20014;-66
2023/07/28 05:59:40;;;;;;;11.90;2.97;;;;;;;;;;6246333;22;20007;-66
2023/07/28 06:02:06;;;;;;;13.95;3.55;;;;;;;;;;6246534;22;20031;-66
2023/07/28 06:04:58;;;;;;;10.02;2.80;;;;;;;;;;6270205;22;20003;-69
2023/07/28 06:07:23;;;;;;;7.95;2.65;;;;;;;;;;6273863;22;20023;-67
2023/07/28 06:09:49;;;;;;;11.18;2.40;;;;;;;;;;6274810;22;20015;-66
2023/07/28 06:12:16;;;;;;;8.80;2.53;;;;;;;;;;6245937;22;20019;-66
2023/07/28 06:14:42;;;;;;;7.32;2.40;;;;;;;;;;6246548;22;20004;-66
2023/07/28 06:17:09;;;;;;;7.43;2.20;;;;;;;;;;6246746;22;20008;-65
2023/07/28 06:19:35;;;;;;;16.38;3.65;;;;;;;;;;6246674;22;20299;-66
2023/07/28 06:22:01;;;;;;;7.03;1.85;;;;;;;;;;6246308;22;20008;-66
2023/07/28 06:24:30;;;;;;;5.97;2.05;;;;;;;;;;6272067;22;20003;-65
2023/07/28 06:26:59;;;;;;;7.03;2.35;;;;;;;;;;6246066;22;20066;-66
2023/07/28 06:29:25;;;;;;;7.75;2.92;;;;;;;;;;6220691;22;19999;-65
2023/07/28 06:31:50;;;;;;;6.70;2.83;;;;;;;;;;6246653;22;20078;-66
2023/07/28 06:34:16;;;;;;;8.65;2.22;;;;;;;;;;6246360;22;20089;-65
2023/07/28 06:36:42;;;;;;;7.18;2.40;;;;;;;;;;6271579;22;20298;-66
2023/07/28 06:39:08;;;;;;;9.43;2.72;;;;;;;;;;6272921;22;20442;-66
2023/07/28 06:41:34;;;;;;;9.50;2.50;;;;;;;;;;6275796;22;20031;-65
2023/07/28 06:44:01;;;;;;;5.85;1.95;;;;;;;;;;6274510;22;20000;-65
2023/07/28 06:46:29;;;;;;;10.27;2.50;;;;;;;;;;6272723;22;20394;-66
2023/07/28 06:48:56;;;;;;;7.57;2.17;;;;;;;;;;6274860;22;20082;-67
2023/07/28 06:51:21;;;;;;;5.80;2.13;;;;;;;;;;6275102;22;20402;-66
2023/07/28 06:53:47;;;;;;;5.75;2.08;;;;;;;;;;6275486;22;20007;-66
2023/07/28 06:56:13;;;;;;;5.72;2.40;;;;;;;;;;6246950;22;20062;-65
2023/07/28 06:58:38;;;;;;;8.02;2.40;;;;;;;;;;6245713;22;20599;-66
2023/07/28 07:01:04;;;;;;;4.43;1.95;;;;;;;;;;6272257;22;20086;-66
2023/07/28 07:03:30;;;;;;;8.00;2.33;;;;;;;;;;6271537;22;20366;-65
2023/07/28 07:05:56;;;;;;;5.93;1.92;;;;;;;;;;6273528;22;20059;-66
2023/07/28 07:08:21;;;;;;;7.97;3.03;;;;;;;;;;6246852;22;20008;-66
2023/07/28 07:10:50;;;;;;;20.52;2.60;;;;;;;;;;6246421;22;20466;-66
2023/07/28 07:13:16;;;;;;;4.97;2.20;;;;;;;;;;6274688;22;20016;-66
2023/07/28 07:15:42;;;;;;;3.95;2.10;;;;;;;;;;6274590;22;20436;-66
2023/07/28 07:18:08;;;;;;;8.43;2.25;;;;;;;;;;6274244;22;20015;-66
2023/07/28 07:20:35;;;;;;;6.45;2.22;;;;;;;;;;6274800;22;20078;-66
2023/07/28 07:23:01;;;;;;;9.70;2.50;;;;;;;;;;6272646;22;20018;-66
2023/07/28 07:25:27;;;;;;;7.80;2.80;;;;;;;;;;6274553;22;20007;-67
2023/07/28 07:27:53;;;;;;;8.40;2.60;;;;;;;;;;6275305;22;20012;-67
2023/07/28 07:30:19;;;;;;;10.45;2.45;;;;;;;;;;6274290;22;20008;-66
2023/07/28 07:32:45;;;;;;;9.23;2.67;;;;;;;;;;6274970;22;20016;-66
2023/07/28 07:35:10;;;;;;;7.60;2.47;;;;;;;;;;6275028;22;20082;-67
2023/07/28 07:37:37;;;;;;;6.35;2.22;;;;;;;;;;6274918;22;20098;-66
2023/07/28 07:40:03;;;;;;;7.55;2.50;;;;;;;;;;6275559;22;20029;-66
2023/07/28 07:42:43;;;;;;;12.00;3.08;;;;;;;;;;6274896;22;20008;-66
2023/07/28 07:45:13;;;;;;;6.32;3.03;;;;;;;;;;6275028;22;20012;-66
2023/07/28 07:47:40;;;;;;;7.07;3.42;;;;;;;;;;6274662;22;20000;-66
2023/07/28 07:50:10;;;;;;;8.23;2.40;;;;;;;;;;6274685;22;20011;-66
2023/07/28 07:52:36;;;;;;;5.70;2.50;;;;;;;;;;6274348;22;20070;-66
2023/07/28 07:55:02;;;;;;;5.68;2.42;;;;;;;;;;6273974;22;19999;-66
2023/07/28 07:57:29;;;;;;;9.23;2.85;;;;;;;;;;6274165;22;20022;-65
2023/07/28 07:59:54;;;;;;;3.88;2.28;;;;;;;;;;6274864;22;20065;-66
2023/07/28 08:02:20;;;;;;;6.80;2.80;;;;;;;;;;6273265;22;20007;-65
2023/07/28 08:04:46;;;;;;;6.78;2.40;;;;;;;;;;6274349;22;20007;-65
2023/07/28 08:07:12;;;;;;;10.30;2.63;;;;;;;;;;6276393;22;20035;-66
2023/07/28 08:09:38;;;;;;;5.68;2.40;;;;;;;;;;6276515;22;20042;-67
2023/07/28 08:12:04;;;;;;;7.07;2.20;;;;;;;;;;6276438;22;20079;-66
2023/07/28 08:14:30;;;;;;;6.45;3.08;;;;;;;;;;6276459;22;19999;-67
2023/07/28 08:16:55;;;;;;;6.15;2.28;;;;;;;;;;6276672;22;20007;-66
2023/07/28 08:19:21;;;;;;;8.80;2.90;;;;;;;;;;6276368;22;19999;-65
2023/07/28 08:21:47;;;;;;;7.82;2.40;;;;;;;;;;6275201;22;20014;-66
2023/07/28 08:24:13;;;;;;;8.57;2.58;;;;;;;;;;6275817;22;20007;-65
2023/07/28 08:26:39;;;;;;;7.47;2.22;;;;;;;;;;6275947;22;20004;-65
2023/07/28 08:29:04;;;;;;;10.00;2.60;;;;;;;;;;6275915;22;20087;-66
2023/07/28 08:31:30;;;;;;;3.83;1.90;;;;;;;;;;6275478;22;20450;-66
2023/07/28 08:33:56;;;;;;;5.03;2.22;;;;;;;;;;6275540;22;20007;-66
2023/07/28 08:36:22;;;;;;;4.75;1.80;;;;;;;;;;6275569;22;20019;-66
2023/07/28 08:38:48;;;;;;;6.25;2.20;;;;;;;;;;6275770;22;19995;-67
2023/07/28 08:41:14;;;;;;;6.88;2.20;;;;;;;;;;6275693;22;20018;-67
2023/07/28 08:43:40;;;;;;;5.28;2.10;;;;;;;;;;6276009;22;20325;-66
2023/07/28 08:46:06;;;;;;;5.47;1.95;;;;;;;;;;6275113;22;20338;-66
2023/07/28 08:48:31;;;;;;;6.32;1.98;;;;;;;;;;6275799;22;20004;-66
2023/07/28 08:50:57;;;;;;;4.75;2.20;;;;;;;;;;6275681;22;20008;-67
2023/07/28 08:53:23;;;;;;;4.13;1.92;;;;;;;;;;6276023;22;20008;-67
2023/07/28 08:55:49;;;;;;;3.90;1.92;;;;;;;;;;6275533;22;20034;-67
2023/07/28 08:58:16;;;;;;;4.65;1.85;;;;;;;;;;6276165;22;20007;-67
2023/07/28 09:00:41;;;;;;;4.82;2.40;;;;;;;;;;6275577;22;20035;-67
2023/07/28 09:03:11;;;;;;;4.03;2.17;;;;;;;;;;6275194;22;20003;-66
2023/07/28 09:05:37;;;;;;;4.05;2.30;;;;;;;;;;6275110;22;20039;-66
2023/07/28 09:08:04;;;;;;;4.97;1.80;;;;;;;;;;6276021;22;20004;-66
2023/07/28 09:10:51;;;;;;;8.35;2.38;;;;;;;;;;6274730;22;20008;-66
2023/07/28 09:13:19;;;;;;;7.72;2.10;;;;;;;;;;6275717;22;20015;-67
2023/07/28 09:15:45;;;;;;;5.63;2.35;;;;;;;;;;6275598;22;20128;-66
2023/07/28 09:18:14;;;;;;;5.90;1.98;;;;;;;;;;6274753;22;20003;-66
2023/07/28 09:20:41;;;;;;;4.25;2.08;;;;;;;;;;6275732;22;20003;-67
2023/07/28 09:23:10;;;;;;;5.43;2.10;;;;;;;;;;6273450;22;20349;-67
2023/07/28 09:25:37;;;;;;;8.65;2.58;;;;;;;;;;6273489;22;20000;-66
2023/07/28 09:28:04;;;;;;;4.60;2.00;;;;;;;;;;6274796;22;20042;-66
2023/07/28 09:30:48;;;;;;;3.88;2.25;;;;;;;;;;6275885;22;20334;-67
2023/07/28 09:33:29;;;;;;;4.97;2.13;;;;;;;;;;6275081;22;20008;-67
2023/07/28 09:35:54;;;;;;;4.35;2.28;;;;;;;;;;6275221;22;20091;-67
2023/07/28 09:38:22;;;;;;;7.50;1.75;;;;;;;;;;6275751;22;20085;-67
2023/07/28 09:40:48;;;;;;;5.28;1.90;;;;;;;;;;6275844;22;20011;-67
2023/07/28 09:43:14;;;;;;;7.80;2.15;;;;;;;;;;6275549;22;20334;-67
2023/07/28 09:45:42;;;;;;;4.47;2.22;;;;;;;;;;6275283;22;20083;-67
2023/07/28 09:48:10;;;;;;;13.05;7.13;;;;;;;;;;6274839;22;20047;-69
2023/07/28 09:50:38;;;;;;;5.40;3.30;;;;;;;;;;6273576;22;20434;-67
2023/07/28 09:53:04;;;;;;;11.07;2.55;;;;;;;;;;6275551;22;20080;-66
2023/07/28 09:55:30;;;;;;;3.88;2.10;;;;;;;;;;6275737;22;20008;-67
2023/07/28 09:57:59;;;;;;;5.55;2.25;;;;;;;;;;6275296;22;20062;-68
2023/07/28 10:00:25;;;;;;;3.38;2.22;;;;;;;;;;6275253;22;20004;-67
2023/07/28 10:02:52;;;;;;;4.68;2.38;;;;;;;;;;6275426;22;20004;-67
2023/07/28 10:05:18;;;;;;;5.15;2.05;;;;;;;;;;6275796;22;20042;-66
2023/07/28 10:07:45;;;;;;;6.95;2.78;;;;;;;;;;6275637;22;19996;-67
2023/07/28 10:10:13;;;;;;;3.33;2.08;;;;;;;;;;6275699;22;20039;-67
2023/07/28 10:12:49;;;;;;;3.45;1.90;;;;;;;;;;6275918;22;20030;-68
2023/07/28 10:15:18;;;;;;;4.20;1.90;;;;;;;;;;6275719;22;20019;-68
2023/07/28 10:17:52;;;;;;;2.75;1.90;;;;;;;;;;6275359;22;20437;-67
2023/07/28 10:20:34;;;;;;;3.95;2.10;;;;;;;;;;6275059;22;20008;-67
2023/07/28 10:23:17;;;;;;;4.63;2.40;;;;;;;;;;6275687;22;20011;-68
2023/07/28 10:25:45;;;;;;;12.60;7.32;;;;;;;;;;6275412;22;20505;-67
2023/07/28 10:28:40;;;;;;;7.32;3.67;;;;;;;;;;6275531;22;20046;-67
2023/07/28 10:31:10;;;;;;;10.15;3.00;;;;;;;;;;6275533;22;20019;-68
2023/07/28 10:33:43;;;;;;;3.97;1.92;;;;;;;;;;6275012;22;20003;-67
2023/07/28 10:36:36;;;;;;;5.50;2.15;;;;;;;;;;6275009;22;20043;-67
2023/07/28 10:39:12;;;;;;;;;;;;;;;;;;6275579;22;20015;-67
2023/07/28 10:41:39;;;;;;;4.93;2.25;;;;;;;;;;6275356;22;19907;-68
2023/07/28 10:44:05;;;;;;;6.93;2.70;;;;;;;;;;6275102;22;20462;-68
2023/07/28 10:46:34;;;;;;;6.35;2.50;;;;;;;;;;6275894;22;20489;-67
2023/07/28 10:49:05;;;;;;;6.28;2.38;;;;;;;;;;6275148;22;20383;-66
2023/07/28 10:51:33;;;;;;;5.95;2.40;;;;;;;;;;6275507;22;20011;-67
2023/07/28 10:54:00;;;;;;;9.38;2.70;;;;;;;;;;6275229;22;20010;-67
2023/07/28 10:56:26;;;;;;;6.25;2.00;;;;;;;;;;6275188;22;20022;-68
2023/07/28 10:59:03;;;;;;;4.60;2.40;;;;;;;;;;6274944;22;20090;-67
2023/07/28 11:01:37;;;;;;;14.30;7.47;;;;;;;;;;6275156;22;20620;-68
2023/07/28 11:04:20;;;;;;;4.53;2.50;;;;;;;;;;6275507;22;20011;-68
2023/07/28 11:06:50;;;;;;;4.22;2.50;;;;;;;;;;6275156;22;20086;-68
2023/07/28 11:09:18;;;;;;;5.78;2.65;;;;;;;;;;6247970;22;20101;-68
2023/07/28 11:11:44;;;;;;;7.68;2.50;;;;;;;;;;6274854;22;20090;-68
2023/07/28 11:14:11;;;;;;;2.65;1.88;;;;;;;;;;6274506;22;20012;-68
2023/07/28 11:16:39;;;;;;;3.65;2.42;;;;;;;;;;6274627;22;20497;-67
2023/07/28 11:19:13;;;;;;;2.67;2.08;;;;;;;;;;6274744;22;20003;-67
2023/07/28 11:21:40;;;;;;;3.55;2.38;;;;;;;;;;6275358;22;20000;-68
2023/07/28 11:24:10;;;;;;;5.13;2.72;;;;;;;;;;6274692;22;20456;-68
2023/07/28 11:26:37;;;;;;;3.42;2.30;;;;;;;;;;6274850;22;20034;-68
2023/07/28 11:29:03;;;;;;;16.50;2.83;;;;;;;;;;6247691;22;20086;-67
2023/07/28 11:31:29;;;;;;;5.20;2.45;;;;;;;;;;6275163;22;20015;-67
2023/07/28 11:33:55;;;;;;;4.00;2.33;;;;;;;;;;6274628;22;20008;-67
2023/07/28 11:36:26;;;;;;;3.38;2.35;;;;;;;;;;6274580;22;20008;-68
2023/07/28 11:38:58;;;;;;;3.00;2.42;;;;;;;;;;6275005;22;20053;-67
2023/07/28 11:41:25;;;;;;;5.35;2.67;;;;;;;;;;6274810;22;20014;-68
2023/07/28 11:43:52;;;;;;;4.40;2.58;;;;;;;;;;6247759;22;20000;-67
2023/07/28 11:46:40;;;;;;;7.65;2.50;;;;;;;;;;6274490;22;20008;-67
2023/07/28 11:49:24;;;;;;;6.55;2.63;;;;;;;;;;6274696;22;20011;-68
2023/07/28 11:51:55;;;;;;;4.53;2.42;;;;;;;;;;6274354;22;20012;-67
2023/07/28 11:54:23;;;;;;;3.78;2.45;;;;;;;;;;6274928;22;20047;-68
2023/07/28 11:56:50;;;;;;;16.20;10.05;;;;;;;;;;6274790;22;20295;-68
2023/07/28 11:59:18;;;;;;;7.22;3.03;;;;;;;;;;6273133;22;20358;-68
2023/07/28 12:02:02;;;;;;;7.93;2.50;;;;;;;;;;6274417;22;20082;-68
2023/07/28 12:04:38;;;;;;;7.00;2.33;;;;;;;;;;6273244;22;20007;-68
2023/07/28 12:07:16;;;;;;;6.07;2.53;;;;;;;;;;6274387;22;20015;-68
2023/07/28 12:10:00;;;;;;;4.15;2.30;;;;;;;;;;6274268;22;20004;-67
2023/07/28 12:12:28;;;;;;;5.45;2.30;;;;;;;;;;6274388;22;20018;-67
2023/07/28 12:15:04;;;;;;;6.00;2.42;;;;;;;;;;6275179;22;20031;-68
2023/07/28 12:17:30;;;;;;;4.70;2.67;;;;;;;;;;6274324;22;20070;-67
2023/07/28 12:22:34;;;;;;;6.35;2.60;;;;;;;;;;6274534;22;20008;-67
2023/07/28 12:24:59;;;;;;;4.15;2.75;;;;;;;;;;6273816;22;19995;-68
2023/07/28 12:27:26;;;;;;;4.80;2.92;;;;;;;;;;6274562;22;20015;-68
2023/07/28 12:29:52;;;;;;;7.55;2.20;;;;;;;;;;6274626;22;20004;-68
2023/07/28 12:32:19;;;;;;;4.63;2.60;;;;;;;;;;6273974;22;20035;-68
2023/07/28 12:34:45;;;;;;;3.88;2.83;;;;;;;;;;6274211;22;20054;-67
2023/07/28 12:37:10;;;;;;;9.40;3.63;;;;;;;;;;6274346;22;20012;-68
2023/07/28 12:39:41;;;;;;;3.22;2.50;;;;;;;;;;6274291;22;20003;-67
2023/07/28 12:42:07;;;;;;;6.78;2.60;;;;;;;;;;6274405;22;20083;-69
2023/07/28 12:44:33;;;;;;;7.65;5.68;;;;;;;;;;6273928;22;20007;-68
2023/07/28 12:46:59;;;;;;;7.47;2.78;;;;;;;;;;6274415;22;20003;-67
2023/07/28 12:49:25;;;;;;;8.38;3.00;;;;;;;;;;6273095;22;20003;-67
2023/07/28 12:51:51;;;;;;;4.18;2.63;;;;;;;;;;6274672;22;20091;-67
2023/07/28 12:54:17;;;;;;;5.55;3.00;;;;;;;;;;6275608;22;20039;-68
2023/07/28 12:56:43;;;;;;;5.35;3.00;;;;;;;;;;6274199;22;20395;-68
2023/07/28 12:59:09;;;;;;;7.00;3.05;;;;;;;;;;6273008;22;19999;-66
2023/07/28 13:01:37;;;;;;;4.05;3.05;;;;;;;;;;6275454;22;20087;-67
2023/07/28 13:04:03;;;;;;;4.57;2.80;;;;;;;;;;6274029;22;20038;-67
2023/07/28 13:06:29;;;;;;;5.95;2.90;;;;;;;;;;6272340;22;20011;-67
2023/07/28 13:08:55;;;;;;;6.10;3.17;;;;;;;;;;6270742;22;20668;-67
2023/07/28 13:11:21;;;;;;;6.45;3.08;;;;;;;;;;6270763;22;20018;-67
2023/07/28 13:13:47;;;;;;;7.10;3.30;;;;;;;;;;6270515;22;20004;-67
2023/07/28 13:16:12;;;;;;;7.75;3.20;;;;;;;;;;6271945;22;20031;-69
2023/07/28 13:18:39;;;;;;;5.60;3.28;;;;;;;;;;6272087;22;20003;-68
2023/07/28 13:21:06;;;;;;;6.53;3.53;;;;;;;;;;6272438;22;20020;-67
2023/07/28 13:23:33;;;;;;;5.07;2.72;;;;;;;;;;6271382;22;19999;-68
2023/07/28 13:25:59;;;;;;;4.38;3.20;;;;;;;;;;6271827;22;20011;-66
2023/07/28 13:28:25;;;;;;;6.85;3.33;;;;;;;;;;6271467;22;20030;-67
2023/07/28 13:30:51;;;;;;;3.60;2.85;;;;;;;;;;6273530;22;20078;-67
2023/07/28 13:33:17;;;;;;;8.65;3.00;;;;;;;;;;6246753;22;20402;-67
2023/07/28 13:35:43;;;;;;;6.68;3.67;;;;;;;;;;6274775;22;20434;-67
2023/07/28 13:38:09;;;;;;;7.35;3.42;;;;;;;;;;6275962;22;19999;-67
2023/07/28 13:40:35;;;;;;;4.35;2.78;;;;;;;;;;6275846;22;20008;-67
2023/07/28 13:43:01;;;;;;;5.82;2.85;;;;;;;;;;6275634;22;20003;-68
2023/07/28 13:45:27;;;;;;;6.30;3.10;;;;;;;;;;6274548;22;20106;-68
2023/07/28 13:47:53;;;;;;;6.35;3.17;;;;;;;;;;6274558;22;20386;-68
2023/07/28 13:50:19;;;;;;;5.43;3.15;;;;;;;;;;6275368;22;20011;-68
2023/07/28 13:52:44;;;;;;;6.70;3.03;;;;;;;;;;6275426;22;20000;-68
2023/07/28 13:55:10;;;;;;;4.85;3.10;;;;;;;;;;6275997;22;20015;-67
2023/07/28 13:57:36;;;;;;;8.60;3.30;;;;;;;;;;6275400;22;20031;-67
2023/07/28 14:00:03;;;;;;;7.93;3.38;;;;;;;;;;6275251;22;20090;-68
2023/07/28 14:02:30;;;;;;;5.80;3.53;;;;;;;;;;6275574;22;20000;-69
2023/07/28 14:04:56;;;;;;;4.15;2.50;;;;;;;;;;6248282;22;20062;-69
2023/07/28 14:07:22;;;;;;;8.02;2.80;;;;;;;;;;6248336;22;20006;-68
2023/07/28 14:09:48;;;;;;;5.30;3.38;;;;;;;;;;6275549;22;20015;-69
2023/07/28 14:12:14;;;;;;;6.03;2.83;;;;;;;;;;6275330;22;19999;-67
2023/07/28 14:14:39;;;;;;;5.25;3.10;;;;;;;;;;6248069;22;20011;-68
2023/07/28 14:17:05;;;;;;;4.82;2.90;;;;;;;;;;6275935;22;20000;-69
2023/07/28 14:19:31;;;;;;;4.38;3.08;;;;;;;;;;6275712;22;20011;-67
2023/07/28 14:21:57;;;;;;;4.15;2.88;;;;;;;;;;6275939;22;20166;-68
2023/07/28 14:24:23;;;;;;;7.57;2.95;;;;;;;;;;6275152;22;20035;-67
2023/07/28 14:26:49;;;;;;;5.05;3.00;;;;;;;;;;6271745;22;20000;-68
2023/07/28 14:29:15;;;;;;;4.97;2.88;;;;;;;;;;6271825;22;20014;-68
2023/07/28 14:31:40;;;;;;;5.97;2.78;;;;;;;;;;6272159;22;20090;-67
2023/07/28 14:34:06;;;;;;;6.93;2.85;;;;;;;;;;6271868;22;20018;-68
2023/07/28 14:36:34;;;;;;;5.28;2.80;;;;;;;;;;6270729;22;20007;-69
2023/07/28 14:39:00;;;;;;;8.68;3.03;;;;;;;;;;6272343;22;20011;-69
2023/07/28 14:41:26;;;;;;;5.90;3.00;;;;;;;;;;6245619;22;20413;-69
2023/07/28 14:43:52;;;;;;;6.50;2.80;;;;;;;;;;6269845;22;20015;-68
2023/07/28 14:46:19;;;;;;;5.53;2.30;;;;;;;;;;6271217;22;20350;-68
2023/07/28 14:48:45;;;;;;;6.63;2.60;;;;;;;;;;6271512;22;20154;-69